Time;durP1;ratioP1;P1;durP2;ratioP2;P2;SDS_P1;SDS_P2;PMS_P1;PMS_P2;Temp;Humidity;BMP_temperature;BMP_pressure;BME280_temperature;BME280_humidity;BME280_pressure;Samples;Min_cycle;Max_cycle;Signal;HPM_P1;HPM_P2
2021/09/19 00:01:52;;;;;;;7.00;4.22;;;;;;;14.85;34.01;99951.78;5053025;28;20082;-80
2021/09/19 00:04:18;;;;;;;10.25;4.28;;;;;;;14.32;34.93;99954.44;5036377;28;20445;-78
2021/09/19 00:06:44;;;;;;;12.60;4.30;;;;;;;14.73;33.97;99931.00;5036247;28;20048;-79
2021/09/19 00:09:10;;;;;;;12.85;4.82;;;;;;;14.46;34.51;99939.50;5056355;28;20048;-79
2021/09/19 00:11:36;;;;;;;8.90;4.60;;;;;;;14.04;35.19;99936.34;5056518;28;20127;-80
2021/09/19 00:14:02;;;;;;;9.07;4.22;;;;;;;14.64;34.41;99951.56;5023264;28;20049;-79
2021/09/19 00:16:32;;;;;;;12.00;4.53;;;;;;;14.83;33.59;99947.63;5057056;28;20545;-79
2021/09/19 00:18:58;;;;;;;10.98;4.60;;;;;;;14.70;34.08;99947.34;5056610;28;20044;-79
2021/09/19 00:21:24;;;;;;;15.50;4.47;;;;;;;14.70;34.11;99952.69;5039598;28;20079;-79
2021/09/19 00:23:49;;;;;;;9.43;4.18;;;;;;;14.33;34.70;99950.75;5056602;28;20508;-78
2021/09/19 00:26:15;;;;;;;11.45;4.60;;;;;;;14.13;35.32;99946.78;5023260;28;20135;-78
2021/09/19 00:28:41;;;;;;;10.70;4.18;;;;;;;14.42;34.66;99951.53;5039606;28;20055;-78
2021/09/19 00:31:07;;;;;;;13.13;4.25;;;;;;;14.32;34.74;99953.59;5023136;28;20420;-78
2021/09/19 00:33:33;;;;;;;12.35;4.25;;;;;;;14.75;33.94;99959.19;5056941;28;20044;-79
2021/09/19 00:35:59;;;;;;;7.95;4.32;;;;;;;14.40;34.10;99958.91;5023300;28;20071;-78
2021/09/19 00:38:25;;;;;;;11.40;4.30;;;;;;;14.30;34.44;99952.94;5023879;28;20048;-78
2021/09/19 00:40:51;;;;;;;7.30;4.72;;;;;;;14.20;34.57;99953.13;5040764;28;20052;-79
2021/09/19 00:43:17;;;;;;;7.13;3.92;;;;;;;14.49;33.86;99957.84;5060480;28;20041;-80
2021/09/19 00:45:42;;;;;;;8.00;3.85;;;;;;;14.38;34.12;99958.22;5079709;28;20066;-81
2021/09/19 00:48:08;;;;;;;10.48;3.83;;;;;;;14.74;33.25;99949.53;5044332;28;20052;-77
2021/09/19 00:50:34;;;;;;;13.50;4.03;;;;;;;14.68;33.42;99960.09;5056280;28;20044;-80
2021/09/19 00:53:00;;;;;;;7.97;3.83;;;;;;;14.47;33.71;99954.50;5039568;28;20089;-80
2021/09/19 00:55:27;;;;;;;6.50;3.78;;;;;;;14.23;34.42;99967.97;5022781;28;20044;-80
2021/09/19 00:57:54;;;;;;;6.32;3.92;;;;;;;14.58;33.81;99957.63;5039208;28;20048;-80
2021/09/19 01:00:23;;;;;;;6.30;3.35;;;;;;;14.64;33.96;99959.59;5055749;28;20040;-79
2021/09/19 01:02:51;;;;;;;7.57;3.08;;;;;;;14.27;33.84;99961.31;5072535;28;20040;-80
2021/09/19 01:05:17;;;;;;;6.45;3.42;;;;;;;14.54;33.61;99955.50;5022770;28;20086;-80
2021/09/19 01:07:44;;;;;;;13.32;3.55;;;;;;;14.37;33.61;99962.75;5055486;28;20044;-79
2021/09/19 01:10:14;;;;;;;8.40;3.50;;;;;;;14.60;33.64;99958.31;5072060;28;20049;-80
2021/09/19 01:12:40;;;;;;;6.22;3.80;;;;;;;14.77;33.44;99961.69;5071895;28;20511;-79
2021/09/19 01:15:08;;;;;;;8.98;3.70;;;;;;;14.80;33.21;99950.66;5038650;28;20048;-80
2021/09/19 01:17:34;;;;;;;7.65;3.80;;;;;;;14.80;33.19;99937.28;5055216;28;20075;-79
2021/09/19 01:20:00;;;;;;;10.55;3.78;;;;;;;14.78;32.96;99956.19;5038306;28;20097;-79
2021/09/19 01:22:36;;;;;;;11.20;4.00;;;;;;;15.33;32.25;99955.91;5021809;28;20056;-79
2021/09/19 01:25:05;;;;;;;14.68;4.60;;;;;;;15.22;32.49;99943.78;5054898;28;20044;-79
2021/09/19 01:27:31;;;;;;;11.95;4.00;;;;;;;14.99;32.19;99945.66;5054936;28;20048;-80
2021/09/19 01:29:57;;;;;;;11.48;3.70;;;;;;;14.88;32.35;99947.94;5038289;28;20047;-78
2021/09/19 01:32:23;;;;;;;18.63;3.17;;;;;;;14.83;32.61;99945.78;5038885;28;20102;-79
2021/09/19 01:34:50;;;;;;;6.80;3.40;;;;;;;15.07;32.15;99928.72;5021756;28;20041;-79
2021/09/19 01:37:16;;;;;;;5.70;3.42;;;;;;;15.01;32.33;99934.78;5054689;28;20492;-79
2021/09/19 01:39:42;;;;;;;9.30;3.35;;;;;;;14.73;32.59;99929.13;5037958;28;20072;-78
2021/09/19 01:42:10;;;;;;;8.00;3.10;;;;;;;15.08;32.29;99928.53;5021493;28;20087;-79
2021/09/19 01:44:36;;;;;;;7.60;3.63;;;;;;;14.92;32.35;99926.00;5054738;28;20093;-80
2021/09/19 01:47:03;;;;;;;7.40;3.38;;;;;;;14.48;33.04;99921.44;5055251;28;20098;-81
2021/09/19 01:49:29;;;;;;;9.13;4.35;;;;;;;14.77;32.34;99918.91;5038248;28;20466;-80
2021/09/19 01:51:54;;;;;;;5.22;3.15;;;;;;;14.48;32.70;99913.44;5021535;28;20461;-80
2021/09/19 01:54:20;;;;;;;4.78;3.30;;;;;;;14.56;32.80;99908.03;5054530;28;20052;-79
2021/09/19 01:56:46;;;;;;;4.13;3.33;;;;;;;14.81;32.06;99917.53;5021205;28;20128;-79
2021/09/19 01:59:12;;;;;;;6.60;2.88;;;;;;;14.73;32.12;99893.56;5021284;28;20040;-78
2021/09/19 02:01:38;;;;;;;6.32;3.03;;;;;;;14.74;32.16;99909.41;5021102;28;20053;-79
2021/09/19 02:04:04;;;;;;;3.83;2.83;;;;;;;14.66;32.44;99901.44;5038110;28;20076;-78
2021/09/19 02:06:30;;;;;;;4.38;2.83;;;;;;;14.81;32.00;99890.81;5037546;28;20154;-77
2021/09/19 02:08:56;;;;;;;5.32;2.80;;;;;;;14.58;32.26;99880.13;5021282;28;20040;-78
2021/09/19 02:11:22;;;;;;;3.60;2.97;;;;;;;14.96;31.96;99897.06;5037294;28;20526;-78
2021/09/19 02:13:49;;;;;;;4.95;3.17;;;;;;;15.05;31.85;99891.44;5070720;28;20047;-79
2021/09/19 02:16:16;;;;;;;4.40;3.03;;;;;;;15.18;31.82;99898.84;5070581;28;20048;-78
2021/09/19 02:18:42;;;;;;;5.22;3.22;;;;;;;14.60;31.97;99893.31;5070752;28;20066;-79
2021/09/19 02:21:10;;;;;;;4.35;3.20;;;;;;;14.91;31.97;99891.41;5020266;28;20467;-79
2021/09/19 02:23:36;;;;;;;4.40;3.00;;;;;;;14.96;31.83;99892.53;5053880;28;20074;-79
2021/09/19 02:26:03;;;;;;;5.32;3.08;;;;;;;14.99;31.77;99902.03;5037088;28;20049;-79
2021/09/19 02:28:29;;;;;;;3.60;2.70;;;;;;;14.74;32.13;99898.72;5037460;28;20087;-78
2021/09/19 02:30:54;;;;;;;6.72;3.00;;;;;;;14.91;31.56;99894.06;5020063;28;20512;-79
2021/09/19 02:33:20;;;;;;;4.25;2.90;;;;;;;14.85;31.97;99892.94;5020068;28;20036;-78
2021/09/19 02:35:46;;;;;;;4.72;3.35;;;;;;;14.91;31.73;99894.06;5034773;28;20559;-80
2021/09/19 02:38:12;;;;;;;9.18;3.70;;;;;;;14.83;31.69;99888.78;5034823;28;20040;-79
2021/09/19 02:40:38;;;;;;;4.20;2.90;;;;;;;14.96;31.71;99897.88;5034525;28;20526;-78
2021/09/19 02:43:04;;;;;;;6.88;3.25;;;;;;;14.67;32.32;99891.56;5018186;28;20062;-79
2021/09/19 02:45:30;;;;;;;7.18;3.47;;;;;;;14.87;32.00;99879.38;5034843;28;20048;-80
2021/09/19 02:47:56;;;;;;;8.07;3.40;;;;;;;14.93;31.74;99894.72;5018818;28;20678;-80
2021/09/19 02:50:24;;;;;;;7.45;3.80;;;;;;;14.40;32.98;99894.75;5018419;28;20059;-80
2021/09/19 02:52:50;;;;;;;9.82;3.10;;;;;;;14.54;32.90;99894.00;5069631;28;20388;-80
2021/09/19 02:55:18;;;;;;;4.47;3.20;;;;;;;14.68;32.63;99895.94;5036717;28;20131;-79
2021/09/19 02:57:45;;;;;;;6.15;3.35;;;;;;;14.48;32.74;99889.38;5070593;28;20096;-80
2021/09/19 03:00:14;;;;;;;8.32;3.67;;;;;;;14.43;33.10;99878.38;5037640;28;20131;-80
2021/09/19 03:02:40;;;;;;;4.70;3.50;;;;;;;14.62;32.55;99873.38;5053690;28;20385;-81
2021/09/19 03:05:07;;;;;;;8.10;3.50;;;;;;;14.93;32.11;99884.00;5020567;28;20049;-80
2021/09/19 03:07:34;;;;;;;4.38;3.38;;;;;;;14.67;32.49;99884.38;5053489;28;20075;-78
2021/09/19 03:09:59;;;;;;;7.05;3.30;;;;;;;14.69;32.57;99882.38;5020407;28;20041;-79
2021/09/19 03:12:25;;;;;;;5.45;3.92;;;;;;;14.73;32.01;99862.28;5036240;28;20097;-79
2021/09/19 03:14:51;;;;;;;7.25;4.22;;;;;;;14.71;32.41;99879.53;5053123;28;20044;-78
2021/09/19 03:17:17;;;;;;;5.85;4.10;;;;;;;14.97;32.10;99885.34;5069597;28;20052;-79
2021/09/19 03:19:43;;;;;;;8.80;3.85;;;;;;;14.82;32.40;99873.75;5053223;28;20040;-77
2021/09/19 03:22:10;;;;;;;9.35;3.45;;;;;;;14.58;32.87;99880.13;5053053;28;20094;-77
2021/09/19 03:24:36;;;;;;;6.30;3.70;;;;;;;14.86;32.23;99877.72;5053247;28;20044;-77
2021/09/19 03:27:05;;;;;;;5.28;3.60;;;;;;;14.90;32.28;99869.16;5020057;28;20133;-77
2021/09/19 03:29:31;;;;;;;9.82;3.75;;;;;;;14.98;31.89;99887.84;5036686;28;20044;-78
2021/09/19 03:31:57;;;;;;;4.75;3.88;;;;;;;14.99;32.08;99870.75;5035914;28;20531;-68
2021/09/19 03:34:23;;;;;;;10.20;3.58;;;;;;;14.65;32.74;99886.41;5056485;28;20097;-68
2021/09/19 03:36:50;;;;;;;4.78;3.83;;;;;;;14.46;33.04;99884.22;5080845;28;20052;-68
2021/09/19 03:39:16;;;;;;;4.95;4.00;;;;;;;14.51;33.17;99879.19;5077056;28;20105;-68
2021/09/19 03:41:42;;;;;;;6.40;4.00;;;;;;;14.45;33.21;99858.47;5062170;28;20048;-68
2021/09/19 03:44:10;;;;;;;6.78;4.10;;;;;;;14.56;32.82;99850.03;5048306;28;20040;-68
2021/09/19 03:46:36;;;;;;;5.13;4.10;;;;;;;14.54;32.93;99884.16;5068017;28;20036;-68
2021/09/19 03:49:03;;;;;;;10.55;3.90;;;;;;;14.72;32.79;99876.69;5068422;28;20048;-69
2021/09/19 03:51:29;;;;;;;5.22;3.85;;;;;;;14.92;32.36;99883.19;5066366;28;20064;-67
2021/09/19 03:53:56;;;;;;;7.00;3.72;;;;;;;14.66;33.10;99879.22;5063924;28;20053;-69
2021/09/19 03:56:22;;;;;;;7.32;3.83;;;;;;;14.68;32.63;99885.22;5065912;28;20046;-69
2021/09/19 03:58:49;;;;;;;4.93;3.75;;;;;;;14.77;32.99;99868.97;5048397;28;20036;-67
2021/09/19 04:01:15;;;;;;;8.95;3.78;;;;;;;15.10;32.13;99888.22;5063984;28;20129;-68
2021/09/19 04:03:41;;;;;;;5.43;3.90;;;;;;;15.07;32.20;99892.09;5048142;28;20043;-68
2021/09/19 04:06:07;;;;;;;6.95;3.47;;;;;;;14.88;32.66;99886.41;5092990;28;20040;-69
2021/09/19 04:08:33;;;;;;;6.43;3.70;;;;;;;14.95;32.38;99885.50;5059933;28;20054;-68
2021/09/19 04:10:59;;;;;;;5.28;4.07;;;;;;;14.81;32.61;99882.78;5039155;28;20500;-67
2021/09/19 04:13:25;;;;;;;4.75;3.05;;;;;;;14.85;32.71;99892.13;5056929;28;20045;-79
2021/09/19 04:15:50;;;;;;;5.95;3.67;;;;;;;14.97;32.80;99894.19;5039902;28;20377;-78
2021/09/19 04:18:17;;;;;;;7.20;3.83;;;;;;;14.86;32.88;99899.13;5039262;28;20143;-77
2021/09/19 04:20:44;;;;;;;5.88;3.60;;;;;;;14.99;32.47;99888.66;5072372;28;20040;-76
2021/09/19 04:23:10;;;;;;;6.03;3.72;;;;;;;15.19;32.27;99904.03;5022924;28;20052;-74
2021/09/19 04:25:36;;;;;;;5.18;3.72;;;;;;;14.98;32.42;99885.16;5039196;28;20503;-79
2021/09/19 04:28:03;;;;;;;11.27;4.13;;;;;;;15.27;32.46;99892.41;5055952;28;20094;-78
2021/09/19 04:30:29;;;;;;;5.57;3.45;;;;;;;14.20;34.22;99894.34;5072447;28;20041;-75
2021/09/19 04:32:55;;;;;;;4.88;3.67;;;;;;;15.00;32.58;99893.00;5022394;28;20052;-76
2021/09/19 04:35:21;;;;;;;8.93;4.10;;;;;;;15.04;32.46;99886.25;5022668;28;20460;-77
2021/09/19 04:37:47;;;;;;;4.65;3.75;;;;;;;15.23;32.15;99912.53;5022573;28;20140;-78
2021/09/19 04:40:13;;;;;;;7.20;3.65;;;;;;;14.82;33.16;99895.97;5055832;28;20131;-77
2021/09/19 04:42:39;;;;;;;6.03;3.88;;;;;;;14.78;32.99;99905.38;5037300;28;20040;-75
2021/09/19 04:45:09;;;;;;;8.20;4.00;;;;;;;15.05;32.63;99895.97;5022853;28;20083;-75
2021/09/19 04:47:35;;;;;;;10.15;4.47;;;;;;;14.97;32.84;99899.56;5056204;28;20500;-76
2021/09/19 04:50:01;;;;;;;6.72;3.58;;;;;;;15.05;32.51;99896.78;5038970;28;20044;-77
2021/09/19 04:52:27;;;;;;;6.93;3.72;;;;;;;15.17;32.45;99891.84;5041162;28;20036;-78
2021/09/19 04:54:53;;;;;;;5.32;3.70;;;;;;;15.39;31.76;99901.69;5030705;28;20565;-78
2021/09/19 04:57:19;;;;;;;9.55;3.88;;;;;;;15.43;32.02;99913.72;5029797;28;20571;-79
2021/09/19 04:59:45;;;;;;;7.13;3.42;;;;;;;15.38;32.29;99894.69;5060551;28;20044;-76
2021/09/19 05:02:10;;;;;;;4.40;3.58;;;;;;;15.44;32.01;99901.16;5064025;28;20532;-75
2021/09/19 05:04:36;;;;;;;6.30;4.00;;;;;;;15.68;31.58;99904.44;5048081;28;20036;-75
2021/09/19 05:07:02;;;;;;;6.75;3.70;;;;;;;15.41;32.13;99897.00;5030774;28;20713;-80
2021/09/19 05:09:28;;;;;;;5.75;3.83;;;;;;;15.74;31.77;99901.00;5062574;28;20046;-75
2021/09/19 05:11:54;;;;;;;5.38;3.90;;;;;;;15.88;31.29;99893.97;5043114;28;20052;-75
2021/09/19 05:14:20;;;;;;;5.07;3.70;;;;;;;16.05;30.91;99898.13;5042688;28;20043;-76
2021/09/19 05:16:46;;;;;;;7.75;4.00;;;;;;;16.19;30.72;99894.59;5042693;28;20043;-75
2021/09/19 05:19:12;;;;;;;8.73;3.80;;;;;;;15.92;31.05;99895.25;5075708;28;20089;-76
2021/09/19 05:21:38;;;;;;;5.95;3.65;;;;;;;16.24;30.47;99895.69;5075631;28;20062;-74
2021/09/19 05:24:04;;;;;;;5.55;3.90;;;;;;;16.25;30.58;99905.38;5075648;28;20039;-76
2021/09/19 05:26:30;;;;;;;7.20;3.70;;;;;;;16.26;30.50;99900.84;5074624;28;20097;-76
2021/09/19 05:28:56;;;;;;;7.65;3.40;;;;;;;16.49;30.25;99905.09;5058367;28;20059;-76
2021/09/19 05:31:22;;;;;;;5.63;3.47;;;;;;;16.56;30.00;99903.31;5057902;28;20044;-76
2021/09/19 05:33:49;;;;;;;6.28;3.60;;;;;;;16.51;29.91;99905.72;5058033;28;20046;-75
2021/09/19 05:36:21;;;;;;;10.15;3.53;;;;;;;16.35;30.33;99894.38;5075580;28;20075;-75
2021/09/19 05:38:47;;;;;;;5.53;3.70;;;;;;;16.56;29.88;99897.09;5037513;28;20083;-74
2021/09/19 05:41:13;;;;;;;7.40;3.63;;;;;;;16.48;29.91;99895.38;5034945;28;20393;-75
2021/09/19 05:43:39;;;;;;;5.53;3.90;;;;;;;16.67;29.73;99899.28;5037015;28;20044;-75
2021/09/19 05:46:05;;;;;;;5.80;4.00;;;;;;;16.33;30.34;99891.88;5021266;28;20054;-76
2021/09/19 05:48:30;;;;;;;18.60;4.40;;;;;;;16.62;29.95;99891.81;5028050;28;20126;-75
2021/09/19 05:50:56;;;;;;;6.85;3.78;;;;;;;16.65;29.88;99896.78;5078599;28;20492;-76
2021/09/19 05:53:22;;;;;;;5.35;3.72;;;;;;;16.87;29.53;99910.25;5046473;28;20476;-75
2021/09/19 05:55:49;;;;;;;7.28;3.88;;;;;;;16.82;29.40;99900.09;5063098;28;20447;-74
2021/09/19 05:58:18;;;;;;;12.95;3.78;;;;;;;16.55;29.96;99893.59;5028616;28;20040;-75
2021/09/19 06:00:44;;;;;;;5.18;3.90;;;;;;;16.62;29.61;99896.38;5029818;28;20065;-75
2021/09/19 06:03:10;;;;;;;10.98;4.20;;;;;;;16.82;29.46;99906.25;5030137;28;20044;-75
2021/09/19 06:05:37;;;;;;;7.75;4.32;;;;;;;16.71;29.65;99896.03;5041038;28;20519;-75
2021/09/19 06:08:03;;;;;;;6.25;4.18;;;;;;;16.81;29.61;99904.59;5045666;28;20044;-76
2021/09/19 06:10:29;;;;;;;7.90;4.10;;;;;;;17.06;29.26;99905.06;5028893;28;20870;-75
2021/09/19 06:12:55;;;;;;;6.40;4.10;;;;;;;17.12;29.20;99898.06;5055955;28;20044;-76
2021/09/19 06:15:20;;;;;;;7.32;4.05;;;;;;;17.14;28.85;99904.09;5024561;28;20048;-76
2021/09/19 06:17:48;;;;;;;5.82;4.30;;;;;;;17.27;28.74;99902.34;5027754;28;20089;-76
2021/09/19 06:20:14;;;;;;;5.45;3.83;;;;;;;17.05;28.83;99891.81;5028897;28;20040;-76
2021/09/19 06:22:40;;;;;;;7.18;3.83;;;;;;;16.61;29.89;99897.38;5046050;28;20051;-75
2021/09/19 06:25:07;;;;;;;5.82;3.70;;;;;;;16.44;30.03;99888.75;5042939;28;20037;-75
2021/09/19 06:27:33;;;;;;;6.97;3.63;;;;;;;16.73;29.75;99902.03;5046280;28;20128;-76
2021/09/19 06:30:07;;;;;;;5.30;3.90;;;;;;;16.62;29.81;99888.31;5046602;28;20068;-75
2021/09/19 06:32:33;;;;;;;6.80;4.00;;;;;;;16.76;29.27;99860.59;5076260;28;20036;-76
2021/09/19 06:34:59;;;;;;;8.45;4.25;;;;;;;17.05;29.11;99870.34;5039170;28;20601;-76
2021/09/19 06:37:25;;;;;;;6.25;3.85;;;;;;;17.36;28.47;99895.78;5033527;28;20047;-76
2021/09/19 06:39:51;;;;;;;7.55;4.35;;;;;;;17.30;28.93;99887.72;5053923;28;20047;-77
2021/09/19 06:42:18;;;;;;;6.90;4.07;;;;;;;17.52;28.71;99894.69;5068391;28;20123;-73
2021/09/19 06:44:44;;;;;;;9.60;3.97;;;;;;;16.93;29.28;99883.44;5045440;28;20086;-76
2021/09/19 06:47:12;;;;;;;6.40;3.88;;;;;;;17.49;28.91;99873.59;5077275;28;20048;-74
2021/09/19 06:49:38;;;;;;;10.65;3.72;;;;;;;16.92;29.30;99872.91;5058240;28;20051;-76
2021/09/19 06:52:04;;;;;;;7.40;4.38;;;;;;;17.39;28.84;99884.66;5066999;28;20033;-76
2021/09/19 06:54:30;;;;;;;5.07;3.67;;;;;;;17.48;28.46;99888.06;5064790;28;20048;-76
2021/09/19 06:56:57;;;;;;;8.48;4.20;;;;;;;17.57;28.49;99894.94;5063321;28;20059;-77
2021/09/19 06:59:23;;;;;;;9.30;4.40;;;;;;;17.68;28.39;99889.03;5062677;28;20067;-77
2021/09/19 07:01:49;;;;;;;6.40;4.25;;;;;;;18.03;27.76;99890.66;5027205;28;20044;-77
2021/09/19 07:04:16;;;;;;;5.85;3.97;;;;;;;18.09;27.63;99879.13;5025135;28;20064;-77
2021/09/19 07:06:46;;;;;;;8.57;4.07;;;;;;;18.04;27.72;99877.03;5044634;28;20044;-77
2021/09/19 07:09:13;;;;;;;6.18;3.88;;;;;;;18.16;27.58;99880.81;5063060;28;20039;-77
2021/09/19 07:11:40;;;;;;;10.07;3.60;;;;;;;17.80;28.17;99872.16;5044775;28;20492;-75
2021/09/19 07:14:06;;;;;;;7.60;4.07;;;;;;;17.90;28.00;99864.56;5027983;28;20044;-77
2021/09/19 07:16:32;;;;;;;7.18;3.90;;;;;;;18.04;28.03;99868.97;5039398;28;20054;-77
2021/09/19 07:19:12;;;;;;;11.57;4.03;;;;;;;18.26;27.88;99867.84;5026825;28;20032;-78
2021/09/19 07:21:38;;;;;;;9.88;4.07;;;;;;;17.53;28.15;99837.28;5078503;28;20511;-75
2021/09/19 07:24:04;;;;;;;6.25;3.90;;;;;;;18.25;27.73;99859.97;5061955;28;20051;-79
2021/09/19 07:26:30;;;;;;;8.40;4.78;;;;;;;18.38;27.40;99843.88;5040616;28;20043;-78
2021/09/19 07:28:56;;;;;;;8.07;3.67;;;;;;;18.90;26.73;99846.66;5028523;28;20040;-76
2021/09/19 07:31:22;;;;;;;9.95;3.45;;;;;;;19.27;26.20;99851.47;5062011;28;20052;-78
2021/09/19 07:33:48;;;;;;;8.18;4.00;;;;;;;18.85;26.61;99857.22;5027356;28;20047;-78
2021/09/19 07:36:15;;;;;;;9.93;3.60;;;;;;;19.15;26.45;99849.56;5078345;28;20101;-80
2021/09/19 07:38:41;;;;;;;9.15;3.67;;;;;;;19.14;26.35;99847.91;5062088;28;20036;-75
2021/09/19 07:41:13;;;;;;;5.57;4.13;;;;;;;19.28;26.14;99857.69;5060559;28;20129;-79
2021/09/19 07:43:40;;;;;;;10.82;3.75;;;;;;;19.47;25.92;99851.41;5061360;28;20040;-77
2021/09/19 07:46:06;;;;;;;9.20;4.20;;;;;;;19.48;25.79;99837.75;5042077;28;20042;-77
2021/09/19 07:48:51;;;;;;;7.90;4.20;;;;;;;19.95;25.27;99850.91;5045601;28;20045;-76
2021/09/19 07:51:44;;;;;;;11.77;3.92;;;;;;;19.70;25.38;99825.69;5051509;28;21436;-76
2021/09/19 07:54:11;;;;;;;10.63;3.65;;;;;;;19.85;25.24;99831.63;5067816;28;20583;-78
2021/09/19 07:56:37;;;;;;;12.00;3.50;;;;;;;19.45;25.82;99824.69;5059337;28;20051;-69
2021/09/19 07:59:03;;;;;;;6.10;3.75;;;;;;;20.03;25.01;99831.75;5049009;28;20044;-75
2021/09/19 08:01:30;;;;;;;10.30;4.25;;;;;;;19.74;25.38;99808.03;5028669;28;20071;-67
2021/09/19 08:03:59;;;;;;;10.32;3.92;;;;;;;20.07;25.35;99819.53;5061194;28;20036;-68
2021/09/19 08:06:25;;;;;;;6.47;3.92;;;;;;;18.37;27.09;99826.91;5059554;28;20047;-76
2021/09/19 08:09:04;;;;;;;8.50;4.15;;;;;;;18.78;27.11;99823.25;5028761;28;20047;-69
2021/09/19 08:11:31;;;;;;;6.32;3.67;;;;;;;19.15;26.67;99820.78;5052132;28;20045;-76
2021/09/19 08:14:05;;;;;;;12.07;3.75;;;;;;;18.79;26.61;99803.41;5035777;28;20138;-67
2021/09/19 08:16:35;;;;;;;15.02;3.47;;;;;;;18.33;27.63;99812.19;5068675;28;20048;-66
2021/09/19 08:19:02;;;;;;;11.45;3.38;;;;;;;18.29;27.07;99815.50;5021346;28;20044;-66
2021/09/19 08:21:28;;;;;;;15.63;3.40;;;;;;;18.77;26.86;99825.13;5035127;28;20190;-66
2021/09/19 08:23:53;;;;;;;9.70;3.38;;;;;;;18.87;27.38;99824.72;5068734;28;20135;-67
2021/09/19 08:26:20;;;;;;;6.72;3.22;;;;;;;18.87;26.68;99812.09;5046011;28;20047;-67
2021/09/19 08:28:46;;;;;;;7.25;3.65;;;;;;;18.27;27.46;99821.06;5044198;28;20037;-68
2021/09/19 08:31:12;;;;;;;9.63;3.08;;;;;;;18.84;26.66;99817.88;5053317;28;20131;-67
2021/09/19 08:33:40;;;;;;;12.07;3.63;;;;;;;19.01;26.88;99820.97;5029380;28;20190;-68
2021/09/19 08:36:12;;;;;;;7.50;2.97;;;;;;;19.12;26.72;99813.13;5059607;28;20036;-68
2021/09/19 08:38:38;;;;;;;5.22;2.83;;;;;;;19.11;26.76;99818.72;5045883;28;20048;-67
2021/09/19 08:41:04;;;;;;;5.60;3.17;;;;;;;18.69;26.29;99813.72;5064801;28;20633;-68
2021/09/19 08:43:30;;;;;;;22.67;3.63;;;;;;;18.92;26.52;99819.53;5062498;28;20123;-67
2021/09/19 08:45:56;;;;;;;10.25;3.25;;;;;;;19.02;26.44;99826.16;5047135;28;20067;-67
2021/09/19 08:48:22;;;;;;;7.68;3.70;;;;;;;19.09;26.11;99824.31;5065100;28;20400;-67
2021/09/19 08:50:53;;;;;;;8.05;3.17;;;;;;;19.32;26.04;99805.88;5027131;28;20043;-67
2021/09/19 08:53:20;;;;;;;3.90;2.88;;;;;;;19.32;25.77;99835.50;5030500;28;20135;-68
2021/09/19 08:55:46;;;;;;;7.60;3.35;;;;;;;19.30;26.09;99837.56;5081643;28;20036;-67
2021/09/19 08:58:12;;;;;;;12.20;3.50;;;;;;;19.02;26.16;99838.81;5046959;28;20059;-67
2021/09/19 09:00:41;;;;;;;11.68;3.20;;;;;;;19.58;25.45;99829.22;5063600;28;20036;-67
2021/09/19 09:03:14;;;;;;;10.27;3.38;;;;;;;19.78;25.34;99822.75;5048703;28;20040;-67
2021/09/19 09:05:40;;;;;;;12.05;3.45;;;;;;;18.74;25.92;99814.78;5081341;28;20036;-67
2021/09/19 09:08:08;;;;;;;10.57;3.10;;;;;;;18.77;26.18;99821.59;5063006;28;20089;-67
2021/09/19 09:10:44;;;;;;;9.13;3.10;;;;;;;19.07;26.22;99839.00;5047339;28;20123;-67
2021/09/19 09:13:20;;;;;;;17.17;3.80;;;;;;;18.99;26.25;99826.56;5047947;28;20101;-68
2021/09/19 09:15:52;;;;;;;11.13;3.40;;;;;;;19.37;25.65;99824.91;5065565;28;20046;-67
2021/09/19 09:18:30;;;;;;;6.40;3.05;;;;;;;19.02;26.27;99828.84;5080578;28;20044;-67
2021/09/19 09:21:01;;;;;;;6.43;3.00;;;;;;;18.96;26.39;99820.81;5042936;28;20056;-67
2021/09/19 09:23:33;;;;;;;7.45;2.80;;;;;;;18.93;26.55;99826.59;5078947;28;20128;-67
2021/09/19 09:26:12;;;;;;;9.45;3.10;;;;;;;19.27;26.09;99835.28;5079165;28;20047;-67
2021/09/19 09:29:01;;;;;;;6.55;3.03;;;;;;;18.75;26.55;99839.81;5079225;28;20040;-67
2021/09/19 09:31:31;;;;;;;13.20;3.22;;;;;;;18.61;27.06;99832.75;5080612;28;20040;-67
2021/09/19 09:34:12;;;;;;;10.45;3.30;;;;;;;18.87;26.75;99844.38;5046912;28;20035;-67
2021/09/19 09:36:38;;;;;;;;;;;;;;;18.68;26.74;99822.84;5075576;28;20065;-68
2021/09/19 09:39:33;;;;;;;11.63;3.35;;;;;;;19.07;26.39;99837.16;5061845;28;19920;-67
2021/09/19 09:42:01;;;;;;;7.80;2.80;;;;;;;18.97;26.68;99836.75;5076470;28;20036;-67
2021/09/19 09:44:47;;;;;;;4.90;3.03;;;;;;;19.12;26.02;99837.34;5076404;28;20488;-67
2021/09/19 09:47:13;;;;;;;8.27;3.35;;;;;;;18.57;26.95;99836.91;5075414;28;20083;-68
2021/09/19 09:49:42;;;;;;;8.93;2.92;;;;;;;19.29;26.27;99840.47;5060169;28;20086;-67
2021/09/19 09:52:09;;;;;;;10.05;3.10;;;;;;;18.85;26.37;99819.53;5044940;28;20048;-67
2021/09/19 09:55:02;;;;;;;7.40;3.05;;;;;;;18.91;26.60;99823.28;5060958;28;20115;-66
2021/09/19 09:57:34;;;;;;;10.70;4.22;;;;;;;19.31;26.23;99814.97;5072115;28;20134;-67
2021/09/19 10:00:07;;;;;;;5.70;2.90;;;;;;;18.52;26.79;99809.78;5077542;28;20040;-67
2021/09/19 10:02:33;;;;;;;6.70;3.45;;;;;;;19.26;26.04;99817.47;5074277;28;20107;-67
2021/09/19 10:05:00;;;;;;;9.43;3.25;;;;;;;19.43;25.84;99818.72;5035330;28;20044;-67
2021/09/19 10:07:26;;;;;;;9.00;3.13;;;;;;;19.37;25.87;99818.72;5017144;28;20043;-67
2021/09/19 10:09:53;;;;;;;7.32;3.08;;;;;;;19.11;26.01;99808.75;5067061;28;20094;-67
2021/09/19 10:12:20;;;;;;;6.22;3.20;;;;;;;18.74;26.64;99801.34;5049934;28;20040;-67
2021/09/19 10:14:54;;;;;;;6.90;2.85;;;;;;;19.60;25.78;99805.59;5036280;28;20059;-67
2021/09/19 10:17:24;;;;;;;18.50;3.95;;;;;;;18.92;26.51;99787.25;5069086;28;20117;-67
2021/09/19 10:19:51;;;;;;;8.25;2.83;;;;;;;19.43;26.26;99783.69;5055498;28;20036;-67
2021/09/19 10:22:31;;;;;;;4.68;3.10;;;;;;;19.60;25.49;99781.34;5037759;28;20052;-67
2021/09/19 10:24:57;;;;;;;7.15;3.20;;;;;;;19.37;25.78;99795.28;5067691;28;20043;-66
2021/09/19 10:27:29;;;;;;;5.82;2.70;;;;;;;19.91;25.00;99801.13;5062860;28;20048;-66
2021/09/19 10:30:01;;;;;;;9.07;2.97;;;;;;;19.50;25.34;99789.88;5079031;28;20039;-66
2021/09/19 10:32:35;;;;;;;6.50;2.65;;;;;;;19.65;25.61;99786.94;5075777;28;20061;-68
2021/09/19 10:35:10;;;;;;;7.40;2.97;;;;;;;19.59;25.08;99787.75;5073187;28;20032;-67
2021/09/19 10:37:48;;;;;;;6.03;2.92;;;;;;;20.19;24.98;99783.81;5069145;28;20044;-67
2021/09/19 10:40:29;;;;;;;10.48;3.13;;;;;;;20.04;24.65;99766.03;5067392;28;20067;-67
2021/09/19 10:42:55;;;;;;;9.85;2.92;;;;;;;19.62;25.10;99782.78;5068790;28;20411;-66
2021/09/19 10:45:22;;;;;;;10.07;3.03;;;;;;;19.88;25.01;99779.19;5068372;28;20106;-66
2021/09/19 10:47:58;;;;;;;8.27;2.70;;;;;;;19.92;24.81;99770.44;5057943;28;20036;-64
2021/09/19 10:50:31;;;;;;;9.98;2.83;;;;;;;19.72;24.80;99768.88;5049131;28;20603;-74
2021/09/19 10:53:23;;;;;;;4.30;3.05;;;;;;;19.71;24.74;99773.41;5067631;28;20048;-76
2021/09/19 10:56:15;;;;;;;9.20;3.00;;;;;;;19.86;24.74;99762.38;5059839;28;20044;-70
2021/09/19 10:58:45;;;;;;;7.10;2.72;;;;;;;19.80;24.97;99757.84;5072383;28;20052;-68
2021/09/19 11:01:12;;;;;;;12.73;3.00;;;;;;;19.56;24.80;99751.31;5070682;28;20087;-69
2021/09/19 11:04:01;;;;;;;7.00;2.85;;;;;;;19.98;24.88;99758.81;5058616;28;20478;-70
2021/09/19 11:06:40;;;;;;;7.68;2.95;;;;;;;19.71;25.05;99749.16;5037363;28;20443;-70
2021/09/19 11:09:26;;;;;;;10.60;2.97;;;;;;;19.97;24.51;99767.91;5090800;28;20044;-71
2021/09/19 11:12:14;;;;;;;9.95;3.40;;;;;;;20.05;24.29;99759.59;5043795;28;20094;-69
2021/09/19 11:15:01;;;;;;;3.40;2.70;;;;;;;20.04;24.53;99766.03;5085223;28;20127;-67
2021/09/19 11:17:31;;;;;;;6.07;2.80;;;;;;;19.92;24.59;99758.81;5071801;28;20082;-68
2021/09/19 11:20:12;;;;;;;10.00;3.38;;;;;;;20.22;24.41;99741.03;5088753;28;20040;-68
2021/09/19 11:23:08;;;;;;;11.48;3.33;;;;;;;20.03;24.79;99767.03;5090347;28;20067;-69
2021/09/19 11:25:34;;;;;;;5.88;2.83;;;;;;;19.34;25.21;99720.28;5066932;28;20129;-67
2021/09/19 11:28:00;;;;;;;8.55;3.05;;;;;;;19.09;25.46;99730.06;5088271;28;20032;-73
2021/09/19 11:30:28;;;;;;;7.13;3.08;;;;;;;19.41;25.49;99721.09;5039141;28;20520;-74
2021/09/19 11:32:54;;;;;;;11.13;2.90;;;;;;;19.34;25.29;99727.56;5040190;28;20126;-71
2021/09/19 11:35:23;;;;;;;11.48;3.20;;;;;;;19.20;25.48;99728.59;5056232;28;20056;-73
2021/09/19 11:37:58;;;;;;;6.82;3.20;;;;;;;19.95;25.07;99739.53;5055907;28;20181;-73